Time;durP1;ratioP1;P1;durP2;ratioP2;P2;SDS_P1;SDS_P2;PMS_P1;PMS_P2;Temp;Humidity;BMP_temperature;BMP_pressure;BME280_temperature;BME280_humidity;BME280_pressure;Samples;Min_cycle;Max_cycle;Signal;HPM_P1;HPM_P2
2021/06/16 00:02:06;;;;;;;9.73;3.10;;;16.10;99.90;;;;;;6174452;23;20205;-77
2021/06/16 00:04:32;;;;;;;5.53;2.00;;;16.10;99.90;;;;;;6174486;23;20385;-77
2021/06/16 00:06:59;;;;;;;6.18;2.45;;;16.00;99.90;;;;;;6173898;23;20185;-74
2021/06/16 00:09:26;;;;;;;8.23;3.33;;;16.00;99.90;;;;;;6173986;23;20202;-74
2021/06/16 00:11:53;;;;;;;4.67;2.20;;;16.00;99.90;;;;;;6174449;23;20439;-78
2021/06/16 00:14:20;;;;;;;3.80;2.40;;;16.00;99.90;;;;;;6173225;23;20179;-76
2021/06/16 00:16:47;;;;;;;2.93;2.63;;;16.00;99.90;;;;;;6173813;23;20705;-78
2021/06/16 00:19:16;;;;;;;5.27;3.20;;;15.90;99.90;;;;;;6173391;23;20171;-76
2021/06/16 00:21:43;;;;;;;5.73;2.90;;;15.90;99.90;;;;;;6173837;23;20171;-79
2021/06/16 00:24:10;;;;;;;6.20;2.93;;;15.90;99.90;;;;;;6173587;23;20281;-77
2021/06/16 00:26:37;;;;;;;6.23;3.10;;;15.90;99.90;;;;;;6174538;23;20186;-77
2021/06/16 00:29:04;;;;;;;5.27;2.40;;;15.90;99.90;;;;;;6171560;23;20906;-76
2021/06/16 00:31:30;;;;;;;3.43;2.80;;;15.90;99.90;;;;;;6173405;23;20187;-75
2021/06/16 00:33:57;;;;;;;6.13;3.27;;;15.90;99.90;;;;;;6173776;23;20171;-76
2021/06/16 00:36:26;;;;;;;6.80;3.27;;;15.80;99.90;;;;;;6172768;23;20600;-76
2021/06/16 00:38:52;;;;;;;5.20;3.40;;;15.80;99.90;;;;;;6173448;23;20175;-76
2021/06/16 00:41:19;;;;;;;6.43;2.90;;;15.80;99.90;;;;;;6173795;23;20441;-76
2021/06/16 00:43:46;;;;;;;5.33;3.20;;;15.80;99.90;;;;;;6173612;23;20175;-75
2021/06/16 00:46:13;;;;;;;5.63;3.07;;;15.80;99.90;;;;;;6173462;23;20431;-75
2021/06/16 00:48:43;;;;;;;5.83;3.27;;;15.80;99.90;;;;;;6174413;23;20414;-75
2021/06/16 00:51:10;;;;;;;5.20;2.83;;;15.70;99.90;;;;;;6172725;23;20217;-79
2021/06/16 00:53:38;;;;;;;4.50;2.80;;;15.70;99.90;;;;;;6174788;23;20181;-78
2021/06/16 00:56:05;;;;;;;5.87;3.03;;;15.70;99.90;;;;;;6172078;23;20921;-78
2021/06/16 00:58:32;;;;;;;6.07;4.00;;;15.70;99.90;;;;;;6173244;23;20579;-78
2021/06/16 01:01:03;;;;;;;4.70;3.00;;;15.70;99.90;;;;;;6174281;23;20186;-74
2021/06/16 01:03:36;;;;;;;4.63;3.10;;;15.70;99.90;;;;;;6173693;23;20186;-74
2021/06/16 01:06:06;;;;;;;4.07;3.03;;;15.60;99.90;;;;;;6173305;23;20167;-75
2021/06/16 01:08:36;;;;;;;5.53;2.93;;;15.60;99.90;;;;;;6173437;23;20209;-77
2021/06/16 01:11:10;;;;;;;4.27;3.27;;;15.60;99.90;;;;;;6173245;23;20206;-80
2021/06/16 01:13:43;;;;;;;4.60;3.27;;;15.50;99.90;;;;;;6173943;23;20171;-79
2021/06/16 01:16:14;;;;;;;5.13;3.50;;;15.50;99.90;;;;;;6174191;23;20171;-79
2021/06/16 01:18:46;;;;;;;5.67;3.97;;;15.50;99.90;;;;;;6174006;23;20166;-76
2021/06/16 01:21:13;;;;;;;7.30;4.07;;;15.50;99.90;;;;;;6174331;23;20163;-77
2021/06/16 01:24:02;;;;;;;5.03;3.73;;;15.50;99.90;;;;;;6174307;23;20171;-74
2021/06/16 01:26:36;;;;;;;6.40;3.57;;;15.50;99.90;;;;;;6174027;23;20191;-76
2021/06/16 01:29:09;;;;;;;7.23;3.93;;;15.40;99.90;;;;;;6174006;23;20174;-77
2021/06/16 01:31:37;;;;;;;3.90;3.23;;;15.40;99.90;;;;;;6173900;23;20187;-75
2021/06/16 01:34:05;;;;;;;7.83;3.97;;;15.40;99.90;;;;;;6175310;23;20517;-79
2021/06/16 01:36:34;;;;;;;8.83;4.30;;;15.40;99.90;;;;;;6174493;23;20391;-80
2021/06/16 01:39:05;;;;;;;7.80;4.23;;;15.40;99.90;;;;;;6175176;23;20179;-78
2021/06/16 01:41:34;;;;;;;8.40;4.50;;;15.40;99.90;;;;;;6175044;23;20671;-77
2021/06/16 01:44:02;;;;;;;8.57;3.77;;;15.30;99.90;;;;;;6173583;23;20555;-75
2021/06/16 01:46:29;;;;;;;6.20;4.03;;;15.30;99.90;;;;;;6176782;23;20199;-79
2021/06/16 01:48:57;;;;;;;11.00;4.80;;;15.30;99.90;;;;;;6176782;23;20300;-77
2021/06/16 01:51:25;;;;;;;8.17;4.30;;;15.30;99.90;;;;;;6177123;23;20199;-79
2021/06/16 01:53:55;;;;;;;6.77;4.60;;;15.30;99.90;;;;;;6179963;23;20167;-77
2021/06/16 01:56:22;;;;;;;6.57;4.20;;;15.30;99.90;;;;;;6182245;23;20182;-76
2021/06/16 01:58:52;;;;;;;10.40;5.57;;;15.30;99.90;;;;;;6182738;23;20178;-75
2021/06/16 02:01:21;;;;;;;5.67;4.30;;;15.30;99.90;;;;;;6182960;23;20163;-74
2021/06/16 02:03:48;;;;;;;6.20;3.50;;;15.30;99.90;;;;;;6180677;23;20182;-75
2021/06/16 02:06:19;;;;;;;5.63;4.13;;;15.30;99.90;;;;;;6174556;23;20178;-77
2021/06/16 02:08:48;;;;;;;5.60;3.70;;;15.20;99.90;;;;;;6173345;23;20206;-76
2021/06/16 02:11:19;;;;;;;4.30;3.23;;;15.20;99.90;;;;;;6173401;23;20483;-74
2021/06/16 02:13:50;;;;;;;4.93;3.70;;;15.20;99.90;;;;;;6172900;23;20178;-75
2021/06/16 02:16:23;;;;;;;6.47;4.33;;;15.10;99.90;;;;;;6173155;23;20165;-77
2021/06/16 02:18:53;;;;;;;5.23;3.90;;;15.10;99.90;;;;;;6173646;23;20178;-75
2021/06/16 02:21:21;;;;;;;7.40;3.93;;;15.10;99.90;;;;;;6172331;23;20170;-75
2021/06/16 02:23:49;;;;;;;8.33;4.60;;;15.10;99.90;;;;;;6172397;23;20858;-76
2021/06/16 02:26:16;;;;;;;6.90;4.10;;;15.10;99.90;;;;;;6172907;23;20167;-78
2021/06/16 02:28:44;;;;;;;6.00;4.37;;;15.00;99.90;;;;;;6172858;23;20178;-79
2021/06/16 02:31:12;;;;;;;6.07;4.60;;;15.00;99.90;;;;;;6172624;23;20202;-76
2021/06/16 02:33:40;;;;;;;5.27;4.07;;;15.00;99.90;;;;;;6172474;23;20560;-77
2021/06/16 02:36:09;;;;;;;4.83;3.40;;;15.00;99.90;;;;;;6171744;23;20190;-75
2021/06/16 02:38:37;;;;;;;5.23;3.73;;;15.00;99.90;;;;;;6172600;23;20194;-76
2021/06/16 02:41:10;;;;;;;6.27;4.27;;;15.00;99.90;;;;;;6171718;23;20170;-78
2021/06/16 02:43:37;;;;;;;6.47;4.13;;;14.90;99.90;;;;;;6172965;23;20167;-77
2021/06/16 02:46:06;;;;;;;5.93;3.93;;;14.90;99.90;;;;;;6172287;23;20770;-77
2021/06/16 02:48:34;;;;;;;6.60;4.30;;;14.90;99.90;;;;;;6171804;23;20186;-77
2021/06/16 02:51:03;;;;;;;6.07;4.30;;;14.90;99.90;;;;;;6172461;23;20191;-76
2021/06/16 02:53:30;;;;;;;6.27;4.30;;;14.90;99.90;;;;;;6172502;23;20178;-75
2021/06/16 02:56:03;;;;;;;5.53;4.00;;;14.90;99.90;;;;;;6171797;23;20179;-75
2021/06/16 02:58:32;;;;;;;4.97;3.73;;;14.90;99.90;;;;;;6172624;23;20192;-76
2021/06/16 03:01:02;;;;;;;5.27;4.00;;;14.90;99.90;;;;;;6173600;23;20171;-77
2021/06/16 03:03:29;;;;;;;4.03;3.60;;;14.90;99.90;;;;;;6171847;23;20229;-75
2021/06/16 03:05:58;;;;;;;9.87;4.97;;;14.80;99.90;;;;;;6172284;23;20171;-74
2021/06/16 03:08:28;;;;;;;6.80;4.13;;;14.80;99.90;;;;;;6173063;23;20447;-76
2021/06/16 03:10:55;;;;;;;7.40;5.50;;;14.80;99.90;;;;;;6172824;23;20898;-75
2021/06/16 03:13:26;;;;;;;6.07;3.90;;;14.80;99.90;;;;;;6172496;23;20194;-77
2021/06/16 03:15:54;;;;;;;5.70;4.30;;;14.80;99.90;;;;;;6172771;23;20178;-75
2021/06/16 03:18:23;;;;;;;5.87;4.20;;;14.80;99.90;;;;;;6172360;23;20801;-77
2021/06/16 03:20:54;;;;;;;7.60;4.70;;;14.80;99.90;;;;;;6172778;23;20171;-76
2021/06/16 03:23:21;;;;;;;10.77;5.17;;;14.80;99.90;;;;;;6172026;23;20171;-75
2021/06/16 03:25:50;;;;;;;8.27;4.43;;;14.80;99.90;;;;;;6172544;23;20239;-76
2021/06/16 03:28:18;;;;;;;9.33;5.90;;;14.80;99.90;;;;;;6172883;23;20186;-79
2021/06/16 03:30:45;;;;;;;6.77;5.17;;;14.80;99.90;;;;;;6172079;23;20300;-77
2021/06/16 03:33:13;;;;;;;10.00;6.10;;;14.80;99.90;;;;;;6172585;23;20181;-75
2021/06/16 03:35:41;;;;;;;9.40;5.23;;;14.80;99.90;;;;;;6172930;23;20170;-76
2021/06/16 03:38:09;;;;;;;6.80;5.07;;;14.80;99.90;;;;;;6171789;23;20179;-76
2021/06/16 03:40:37;;;;;;;9.07;5.20;;;14.80;99.90;;;;;;6173312;23;20170;-74
2021/06/16 03:43:06;;;;;;;9.57;5.03;;;14.90;99.90;;;;;;6172535;23;20175;-77
2021/06/16 03:45:34;;;;;;;7.97;5.17;;;14.90;99.90;;;;;;6171334;23;20178;-75
2021/06/16 03:48:03;;;;;;;11.70;5.20;;;14.90;99.90;;;;;;6171531;23;20579;-78
2021/06/16 03:50:31;;;;;;;8.63;5.30;;;14.90;99.90;;;;;;6172752;23;20186;-76
2021/06/16 03:52:59;;;;;;;7.80;5.37;;;14.90;99.90;;;;;;6171678;23;20862;-75
2021/06/16 03:55:26;;;;;;;7.63;5.50;;;15.00;99.90;;;;;;6172479;23;20167;-76
2021/06/16 03:57:54;;;;;;;8.60;5.80;;;15.00;99.90;;;;;;6172687;23;20175;-76
2021/06/16 04:00:24;;;;;;;8.03;5.23;;;15.00;99.90;;;;;;6171742;23;20171;-80
2021/06/16 04:02:51;;;;;;;7.20;5.13;;;15.10;99.90;;;;;;6172974;23;20179;-79
2021/06/16 04:05:18;;;;;;;7.33;5.73;;;15.10;99.90;;;;;;6172763;23;20175;-75
2021/06/16 04:07:48;;;;;;;6.50;4.93;;;15.10;99.90;;;;;;6172057;23;20198;-77
2021/06/16 04:10:17;;;;;;;9.47;5.37;;;15.20;99.90;;;;;;6173334;23;20209;-74
2021/06/16 04:12:46;;;;;;;9.87;5.73;;;15.20;99.90;;;;;;6173335;23;20587;-76
2021/06/16 04:15:14;;;;;;;10.93;5.97;;;15.30;99.90;;;;;;6173881;23;20350;-77
2021/06/16 04:17:42;;;;;;;6.97;5.40;;;15.40;99.90;;;;;;6173327;23;20441;-79
2021/06/16 04:20:10;;;;;;;13.03;5.90;;;15.50;99.90;;;;;;6173047;23;20559;-75
2021/06/16 04:22:37;;;;;;;10.93;5.37;;;15.60;99.90;;;;;;6173688;23;20175;-75
2021/06/16 04:25:04;;;;;;;10.57;5.83;;;15.70;99.90;;;;;;6173577;23;20182;-76
2021/06/16 04:27:31;;;;;;;9.03;4.83;;;15.80;99.90;;;;;;6173142;23;20419;-76
2021/06/16 04:29:58;;;;;;;6.68;4.55;;;15.90;99.90;;;;;;6173432;23;20358;-79
2021/06/16 04:32:25;;;;;;;9.73;5.07;;;16.00;99.90;;;;;;6174206;23;20191;-77
2021/06/16 04:34:53;;;;;;;8.53;5.17;;;16.00;99.90;;;;;;6173180;23;20171;-76
2021/06/16 04:37:21;;;;;;;9.07;5.33;;;16.10;99.90;;;;;;6174016;23;20670;-77
2021/06/16 04:39:48;;;;;;;10.10;6.70;;;16.10;99.90;;;;;;6173164;23;20175;-76
2021/06/16 04:42:15;;;;;;;8.27;5.23;;;16.20;99.90;;;;;;6173313;23;20171;-75
2021/06/16 04:44:42;;;;;;;13.63;6.43;;;16.30;99.90;;;;;;6174307;23;20178;-76
2021/06/16 04:47:10;;;;;;;9.90;5.57;;;16.30;99.90;;;;;;6173838;23;20261;-77
2021/06/16 04:49:37;;;;;;;12.87;6.40;;;16.50;99.90;;;;;;6173454;23;20185;-77
2021/06/16 04:52:06;;;;;;;8.27;6.32;;;16.80;99.90;;;;;;6173867;23;20202;-78
2021/06/16 04:54:33;;;;;;;9.65;6.00;;;17.10;99.90;;;;;;6172520;23;20464;-79
2021/06/16 04:57:04;;;;;;;12.65;5.85;;;17.50;99.90;;;;;;6173170;23;20174;-76
2021/06/16 04:59:31;;;;;;;10.00;4.75;;;17.90;99.90;;;;;;6173719;23;20622;-75
2021/06/16 05:01:58;;;;;;;8.68;5.55;;;18.40;99.90;;;;;;6173115;23;20166;-75
2021/06/16 05:04:25;;;;;;;7.35;4.82;;;18.90;99.90;;;;;;6173130;23;20160;-75
2021/06/16 05:06:52;;;;;;;9.77;4.22;;;19.30;99.90;;;;;;6173976;23;20197;-75
2021/06/16 05:09:20;;;;;;;9.20;5.00;;;19.80;99.90;;;;;;6172551;23;20548;-80
2021/06/16 05:11:47;;;;;;;7.65;4.00;;;20.10;99.90;;;;;;6173878;23;20202;-76
2021/06/16 05:14:14;;;;;;;6.32;3.92;;;20.50;99.90;;;;;;6172852;23;20186;-75
2021/06/16 05:16:41;;;;;;;9.15;3.47;;;20.90;99.90;;;;;;6172191;23;20182;-76
2021/06/16 05:19:14;;;;;;;8.13;3.63;;;21.20;99.90;;;;;;6173476;23;20167;-76
2021/06/16 05:21:41;;;;;;;9.60;4.05;;;21.60;99.90;;;;;;6172775;23;20166;-76
2021/06/16 05:24:08;;;;;;;7.55;3.10;;;21.80;99.90;;;;;;6172467;23;20167;-79
2021/06/16 05:26:40;;;;;;;8.10;3.72;;;22.10;99.90;;;;;;6173161;23;20186;-76
2021/06/16 05:29:08;;;;;;;5.07;3.00;;;22.40;99.90;;;;;;6173680;23;20171;-75
2021/06/16 05:31:37;;;;;;;6.40;3.20;;;22.60;99.90;;;;;;6171877;23;20536;-76
2021/06/16 05:34:05;;;;;;;7.43;3.58;;;22.80;99.90;;;;;;6173294;23;20178;-77
2021/06/16 05:36:32;;;;;;;10.75;3.83;;;22.80;99.90;;;;;;6173055;23;20179;-77
2021/06/16 05:39:01;;;;;;;8.30;3.63;;;22.90;99.90;;;;;;6172512;23;20782;-78
2021/06/16 05:41:28;;;;;;;7.90;3.50;;;23.10;99.90;;;;;;6172568;23;20198;-79
2021/06/16 05:43:56;;;;;;;5.72;3.50;;;23.30;99.90;;;;;;6173593;23;20179;-79
2021/06/16 05:46:23;;;;;;;8.13;3.38;;;23.60;99.90;;;;;;6172523;23;20174;-74
2021/06/16 05:48:50;;;;;;;8.02;3.22;;;23.70;99.90;;;;;;6172626;23;20175;-76
2021/06/16 05:51:16;;;;;;;7.75;3.25;;;23.80;99.90;;;;;;6172011;23;20190;-76
2021/06/16 05:53:43;;;;;;;5.90;3.38;;;23.90;99.90;;;;;;6173193;23;20273;-77
2021/06/16 05:56:10;;;;;;;11.30;3.58;;;23.80;99.90;;;;;;6172773;23;20174;-78
2021/06/16 05:58:37;;;;;;;8.18;3.53;;;23.90;99.90;;;;;;6172384;23;20209;-79
2021/06/16 06:01:05;;;;;;;9.13;3.58;;;23.90;99.90;;;;;;6172824;23;20174;-79
2021/06/16 06:03:32;;;;;;;8.65;3.03;;;24.00;99.90;;;;;;6172634;23;20167;-76
2021/06/16 06:05:59;;;;;;;8.60;3.90;;;24.00;99.90;;;;;;6172080;23;20253;-76
2021/06/16 06:08:26;;;;;;;6.13;3.40;;;24.00;99.90;;;;;;6172298;23;20198;-76
2021/06/16 06:10:53;;;;;;;11.13;3.80;;;24.10;99.90;;;;;;6172377;23;20209;-77
2021/06/16 06:13:21;;;;;;;9.07;4.03;;;24.30;99.90;;;;;;6171873;23;20233;-76
2021/06/16 06:15:47;;;;;;;11.35;4.60;;;24.30;99.90;;;;;;6172591;23;20171;-78
2021/06/16 06:18:16;;;;;;;10.82;3.53;;;24.50;99.90;;;;;;6173748;23;20175;-77
2021/06/16 06:20:42;;;;;;;11.40;3.72;;;24.60;99.90;;;;;;6174311;23;20171;-76
2021/06/16 06:23:09;;;;;;;5.25;3.13;;;25.00;99.90;;;;;;6174302;23;20171;-77
2021/06/16 06:25:36;;;;;;;6.00;2.95;;;25.30;99.90;;;;;;6174612;23;20250;-77
2021/06/16 06:28:04;;;;;;;6.95;3.17;;;25.50;99.90;;;;;;6174204;23;20202;-78
2021/06/16 06:30:30;;;;;;;7.22;2.50;;;25.60;99.90;;;;;;6175096;23;20183;-75
2021/06/16 06:32:57;;;;;;;5.90;2.75;;;25.70;99.90;;;;;;6173714;23;20187;-76
2021/06/16 06:35:25;;;;;;;5.60;2.67;;;25.70;99.90;;;;;;6176209;23;20175;-76
2021/06/16 06:37:52;;;;;;;9.70;2.60;;;25.70;99.90;;;;;;6179192;23;20158;-74
2021/06/16 06:40:19;;;;;;;4.85;2.45;;;25.80;99.90;;;;;;6179818;23;20187;-75
2021/06/16 06:42:46;;;;;;;7.38;2.20;;;26.20;99.90;;;;;;6179720;23;20186;-76
2021/06/16 06:45:13;;;;;;;4.25;2.20;;;26.30;99.90;;;;;;6178720;23;20185;-76
2021/06/16 06:47:39;;;;;;;8.30;2.50;;;26.60;99.90;;;;;;6190634;23;20189;-77
2021/06/16 06:50:12;;;;;;;7.38;2.80;;;26.80;99.90;;;;;;6186515;23;20174;-74
2021/06/16 06:52:40;;;;;;;6.22;2.80;;;26.90;99.90;;;;;;6173059;23;20277;-77
2021/06/16 06:55:08;;;;;;;5.65;2.67;;;27.20;99.90;;;;;;6172109;23;20314;-76
2021/06/16 06:57:35;;;;;;;6.15;2.50;;;27.30;99.90;;;;;;6171051;23;20182;-75
2021/06/16 07:00:02;;;;;;;8.30;3.25;;;27.60;99.90;;;;;;6172525;23;20181;-75
2021/06/16 07:02:29;;;;;;;8.30;2.75;;;27.80;99.90;;;;;;6170804;23;20171;-75
2021/06/16 07:04:56;;;;;;;9.57;3.13;;;27.90;99.90;;;;;;6170565;23;20669;-76
2021/06/16 07:07:22;;;;;;;9.50;3.20;;;28.10;99.90;;;;;;6172447;23;20182;-74
2021/06/16 07:09:51;;;;;;;7.72;2.58;;;28.30;99.90;;;;;;6170808;23;20213;-77
2021/06/16 07:12:18;;;;;;;6.18;2.70;;;28.50;99.90;;;;;;6172148;23;20187;-75
2021/06/16 07:14:45;;;;;;;4.75;2.70;;;28.40;99.90;;;;;;6169470;23;20174;-78
2021/06/16 07:17:11;;;;;;;6.47;3.03;;;28.40;99.90;;;;;;6171197;23;20865;-76
2021/06/16 07:19:38;;;;;;;7.07;2.53;;;28.70;99.90;;;;;;6172307;23;20186;-75
2021/06/16 07:22:05;;;;;;;5.07;2.45;;;28.60;99.90;;;;;;6171525;23;20257;-74
2021/06/16 07:24:32;;;;;;;8.20;2.90;;;28.00;99.90;;;;;;6170795;23;20643;-74
2021/06/16 07:27:00;;;;;;;6.13;2.50;;;28.00;99.90;;;;;;6171842;23;20174;-74
2021/06/16 07:29:27;;;;;;;8.02;2.85;;;28.30;99.90;;;;;;6172270;23;20167;-74
2021/06/16 07:31:54;;;;;;;4.03;2.20;;;28.40;99.90;;;;;;6171126;23;20201;-77
2021/06/16 07:34:20;;;;;;;5.90;2.58;;;28.40;99.90;;;;;;6172454;23;20201;-76
2021/06/16 07:36:47;;;;;;;5.47;2.25;;;28.70;99.90;;;;;;6171307;23;20498;-73
2021/06/16 07:39:14;;;;;;;5.35;2.45;;;28.40;99.90;;;;;;6172551;23;20170;-74
2021/06/16 07:41:41;;;;;;;5.20;2.40;;;28.40;99.90;;;;;;6172639;23;20178;-74
2021/06/16 07:44:09;;;;;;;9.45;3.22;;;28.30;99.90;;;;;;6170715;23;20441;-78
2021/06/16 07:46:36;;;;;;;7.55;2.95;;;28.40;99.90;;;;;;6174287;23;20206;-75
2021/06/16 07:49:03;;;;;;;5.05;2.30;;;28.40;99.90;;;;;;6173732;23;20174;-74
2021/06/16 07:51:29;;;;;;;7.93;2.63;;;28.40;99.90;;;;;;6172219;23;20595;-73
2021/06/16 07:53:56;;;;;;;4.07;2.25;;;28.70;99.90;;;;;;6173729;23;20198;-74
2021/06/16 07:56:24;;;;;;;6.07;2.22;;;29.00;99.90;;;;;;6174206;23;20186;-76
2021/06/16 07:58:51;;;;;;;8.95;2.88;;;29.20;99.90;;;;;;6173236;23;20179;-77
2021/06/16 08:01:20;;;;;;;12.25;3.00;;;28.90;99.90;;;;;;6173182;23;20174;-76
2021/06/16 08:03:46;;;;;;;10.32;2.88;;;29.00;99.90;;;;;;6173611;23;20179;-74
2021/06/16 08:06:13;;;;;;;4.32;2.25;;;29.20;99.90;;;;;;6172737;23;20192;-76
2021/06/16 08:08:40;;;;;;;6.97;2.75;;;29.70;99.90;;;;;;6174249;23;20195;-78
2021/06/16 08:11:07;;;;;;;10.75;3.05;;;29.50;99.90;;;;;;6173681;23;20294;-78
2021/06/16 08:13:34;;;;;;;7.43;2.60;;;29.60;99.90;;;;;;6172992;23;20224;-80
2021/06/16 08:16:01;;;;;;;5.30;2.40;;;29.90;99.90;;;;;;6173984;23;20197;-76
2021/06/16 08:18:29;;;;;;;8.32;2.45;;;30.10;99.90;;;;;;6173843;23;20882;-77
2021/06/16 08:20:56;;;;;;;6.40;2.67;;;30.30;99.90;;;;;;6172422;23;20186;-75
2021/06/16 08:23:22;;;;;;;4.82;2.40;;;30.50;99.90;;;;;;6173632;23;20182;-75
2021/06/16 08:25:49;;;;;;;6.85;2.63;;;30.30;99.90;;;;;;6173647;23;20175;-74
2021/06/16 08:28:16;;;;;;;10.38;3.15;;;30.00;99.90;;;;;;6172857;23;20179;-76
2021/06/16 08:30:43;;;;;;;4.93;2.20;;;30.20;99.90;;;;;;6174072;23;20476;-78
2021/06/16 08:33:10;;;;;;;6.63;2.65;;;30.30;99.90;;;;;;6172967;23;20198;-74
2021/06/16 08:35:38;;;;;;;7.15;2.55;;;30.40;99.90;;;;;;6172788;23;20182;-75
2021/06/16 08:38:05;;;;;;;10.63;2.88;;;30.50;99.90;;;;;;6173759;23;20175;-78
2021/06/16 08:40:32;;;;;;;5.07;2.10;;;30.40;99.90;;;;;;6172730;23;20174;-75
2021/06/16 08:42:59;;;;;;;4.85;2.95;;;30.70;99.90;;;;;;6173148;23;20198;-78
2021/06/16 08:45:27;;;;;;;6.80;2.20;;;30.80;99.90;;;;;;6173482;23;20194;-79
2021/06/16 08:47:53;;;;;;;5.60;2.85;;;30.80;99.90;;;;;;6172561;23;20182;-74
2021/06/16 08:50:20;;;;;;;7.95;3.25;;;30.90;99.90;;;;;;6173434;23;20190;-76
2021/06/16 08:52:48;;;;;;;3.47;1.98;;;30.70;99.90;;;;;;6173371;23;20198;-77
2021/06/16 08:55:19;;;;;;;7.50;3.20;;;31.10;99.90;;;;;;6173091;23;20178;-75
2021/06/16 08:57:47;;;;;;;6.63;2.20;;;31.40;99.90;;;;;;6173595;23;20183;-75
2021/06/16 09:00:15;;;;;;;6.22;3.30;;;31.40;99.90;;;;;;6172829;23;20209;-77
2021/06/16 09:02:42;;;;;;;8.43;3.28;;;30.80;99.90;;;;;;6173178;23;20770;-75
2021/06/16 09:05:10;;;;;;;3.13;1.98;;;30.60;99.90;;;;;;6173335;23;20274;-75
2021/06/16 09:07:39;;;;;;;5.85;3.33;;;31.00;99.90;;;;;;6173487;23;20233;-76
2021/06/16 09:10:11;;;;;;;3.97;2.50;;;31.30;99.90;;;;;;6172467;23;20210;-74
2021/06/16 09:12:43;;;;;;;12.35;2.97;;;31.70;99.90;;;;;;6173647;23;20611;-73
2021/06/16 09:15:13;;;;;;;5.32;2.40;;;31.90;99.90;;;;;;6172675;23;20170;-75
2021/06/16 09:17:40;;;;;;;4.47;2.60;;;31.90;99.90;;;;;;6173401;23;20548;-74
2021/06/16 09:20:09;;;;;;;5.25;3.20;;;32.20;99.90;;;;;;6173158;23;20209;-73
2021/06/16 09:22:38;;;;;;;7.63;2.60;;;31.40;99.90;;;;;;6171691;23;20568;-73
2021/06/16 09:25:08;;;;;;;4.68;2.00;;;31.40;99.90;;;;;;6172764;23;20174;-74
2021/06/16 09:27:47;;;;;;;6.47;3.05;;;31.90;99.90;;;;;;6173273;23;20469;-74
2021/06/16 09:30:35;;;;;;;7.07;2.72;;;31.70;99.90;;;;;;6173081;23;20173;-75
2021/06/16 09:33:08;;;;;;;6.25;3.08;;;32.00;99.90;;;;;;6173151;23;20494;-73
2021/06/16 09:35:37;;;;;;;4.28;2.40;;;32.00;99.90;;;;;;6173560;23;20178;-74
2021/06/16 09:38:07;;;;;;;3.47;2.08;;;31.90;99.90;;;;;;6172639;23;20206;-74
2021/06/16 09:40:36;;;;;;;3.80;2.13;;;32.00;99.90;;;;;;6173105;23;20174;-75
2021/06/16 09:43:05;;;;;;;3.88;2.40;;;32.20;99.90;;;;;;6173067;23;20518;-75
2021/06/16 09:45:33;;;;;;;4.38;2.30;;;32.20;99.90;;;;;;6171777;23;20285;-73
2021/06/16 09:48:18;;;;;;;4.72;2.70;;;32.00;99.90;;;;;;6173409;23;20179;-73
2021/06/16 09:50:46;;;;;;;6.40;2.92;;;32.20;99.90;;;;;;6171891;23;20194;-75
2021/06/16 09:53:13;;;;;;;4.97;2.67;;;32.50;99.90;;;;;;6172893;23;20193;-74
2021/06/16 09:55:41;;;;;;;6.28;2.97;;;32.70;99.90;;;;;;6172650;23;20171;-74
2021/06/16 09:58:10;;;;;;;3.38;2.80;;;32.70;99.90;;;;;;6171481;23;20170;-75
2021/06/16 10:00:38;;;;;;;8.52;4.85;;;32.70;99.90;;;;;;6173238;23;20588;-75
2021/06/16 10:03:10;;;;;;;8.40;3.38;;;32.30;99.90;;;;;;6172386;23;20768;-78
2021/06/16 10:05:52;;;;;;;6.38;3.47;;;32.00;99.90;;;;;;6172767;23;20183;-74
2021/06/16 10:08:24;;;;;;;7.93;3.92;;;31.70;99.90;;;;;;6171135;23;20195;-77
2021/06/16 10:10:52;;;;;;;5.22;2.58;;;31.80;99.90;;;;;;6172598;23;20450;-74
2021/06/16 10:13:20;;;;;;;5.55;3.10;;;32.10;99.90;;;;;;6171735;23;20198;-74
2021/06/16 10:15:47;;;;;;;4.55;2.50;;;32.10;99.90;;;;;;6172784;23;20175;-75
2021/06/16 10:18:14;;;;;;;5.72;3.00;;;32.30;99.90;;;;;;6173322;23;20731;-74
2021/06/16 10:20:41;;;;;;;3.67;3.10;;;32.80;99.90;;;;;;6172229;23;20185;-76
2021/06/16 10:23:10;;;;;;;10.30;3.80;;;32.80;99.90;;;;;;6172397;23;20174;-77
2021/06/16 10:25:37;;;;;;;9.23;3.35;;;32.30;99.90;;;;;;6172132;23;20182;-73
2021/06/16 10:28:07;;;;;;;4.63;3.50;;;32.20;99.90;;;;;;6172456;23;20532;-74
2021/06/16 10:30:40;;;;;;;9.02;4.47;;;32.70;99.90;;;;;;6172538;23;20170;-72
2021/06/16 10:33:27;;;;;;;8.20;4.63;;;32.70;99.90;;;;;;6171773;23;20889;-73
2021/06/16 10:36:14;;;;;;;9.60;4.32;;;32.20;99.90;;;;;;6173051;23;20241;-72
2021/06/16 10:38:42;;;;;;;6.25;3.95;;;32.30;99.90;;;;;;6172764;23;20182;-74
2021/06/16 10:41:09;;;;;;;5.30;3.85;;;32.30;99.90;;;;;;6171643;23;20185;-75
2021/06/16 10:43:39;;;;;;;7.22;4.90;;;32.00;99.90;;;;;;6172421;23;20916;-72
2021/06/16 10:46:11;;;;;;;4.70;3.13;;;31.50;99.90;;;;;;6172734;23;20178;-77
2021/06/16 10:48:56;;;;;;;6.38;4.03;;;31.80;99.90;;;;;;6172827;23;20218;-78
2021/06/16 10:51:35;;;;;;;4.13;3.17;;;31.70;99.90;;;;;;6172403;23;20167;-78
2021/06/16 10:54:26;;;;;;;5.10;2.75;;;31.80;99.90;;;;;;6171660;23;20193;-74
2021/06/16 10:56:58;;;;;;;4.57;3.28;;;32.30;99.90;;;;;;6143033;23;20174;-75
2021/06/16 11:00:01;;;;;;;9.55;4.28;;;32.70;99.90;;;;;;6172396;23;20171;-74
2021/06/16 11:03:03;;;;;;;5.13;3.08;;;32.50;99.90;;;;;;6164185;23;20241;-77
2021/06/16 11:05:35;;;;;;;3.00;1.98;;;32.30;99.90;;;;;;6172275;23;20560;-76
2021/06/16 11:08:03;;;;;;;3.70;2.65;;;32.80;99.90;;;;;;6170880;23;20662;-75
2021/06/16 11:10:53;;;;;;;5.20;2.47;;;32.70;99.90;;;;;;6171697;23;20213;-73
2021/06/16 11:13:44;;;;;;;4.60;2.42;;;33.20;99.90;;;;;;6171611;23;20194;-73
2021/06/16 11:16:39;;;;;;;3.00;2.70;;;33.50;99.90;;;;;;6171504;23;20178;-72
2021/06/16 11:19:25;;;;;;;3.80;2.30;;;33.70;99.90;;;;;;6172250;23;20167;-74
2021/06/16 11:21:54;;;;;;;3.75;2.33;;;33.60;99.90;;;;;;6171848;23;20175;-74
2021/06/16 11:24:21;;;;;;;5.50;3.10;;;33.60;99.90;;;;;;6172764;23;20186;-74
2021/06/16 11:26:50;;;;;;;8.70;3.75;;;33.40;99.90;;;;;;6171677;23;20178;-75
2021/06/16 11:29:55;;;;;;;5.85;3.70;;;33.20;99.90;;;;;;6171074;23;20233;-74
2021/06/16 11:32:21;;;;;;;6.57;3.90;;;33.60;99.90;;;;;;6171606;23;20185;-76
2021/06/16 11:34:51;;;;;;;6.97;4.20;;;33.30;99.90;;;;;;6172125;23;20545;-78
2021/06/16 11:37:55;;;;;;;11.18;4.05;;;33.20;99.90;;;;;;6171160;23;20186;-78
2021/06/16 11:40:22;;;;;;;5.75;3.58;;;33.20;99.90;;;;;;6171604;23;20185;-73
2021/06/16 11:42:49;;;;;;;4.57;2.85;;;33.60;99.90;;;;;;6172268;23;20449;-74
2021/06/16 11:45:16;;;;;;;6.85;3.67;;;33.50;99.90;;;;;;6170978;23;20178;-74
2021/06/16 11:47:43;;;;;;;3.88;3.00;;;33.50;99.90;;;;;;6172203;23;20185;-74
2021/06/16 11:50:11;;;;;;;5.40;3.10;;;33.30;99.90;;;;;;6171176;23;20182;-75
2021/06/16 11:52:38;;;;;;;5.75;3.33;;;33.50;99.90;;;;;;6172044;23;20175;-74
2021/06/16 11:55:05;;;;;;;5.35;3.22;;;33.20;99.90;;;;;;6171975;23;20175;-74
2021/06/16 11:57:32;;;;;;;5.47;3.25;;;33.10;99.90;;;;;;6171807;23;20178;-74
2021/06/16 11:59:59;;;;;;;4.05;2.67;;;32.90;99.90;;;;;;6171696;23;20210;-75
2021/06/16 12:02:27;;;;;;;3.22;2.03;;;32.80;99.90;;;;;;6171730;23;20428;-73
2021/06/16 12:04:56;;;;;;;3.97;3.30;;;32.80;99.90;;;;;;6171145;23;20171;-74
2021/06/16 12:07:26;;;;;;;5.13;3.92;;;33.20;99.90;;;;;;6171437;23;20222;-73
2021/06/16 12:09:55;;;;;;;4.50;3.72;;;33.20;99.90;;;;;;6171769;23;20210;-73
2021/06/16 12:12:22;;;;;;;5.28;2.95;;;33.40;99.90;;;;;;6171277;23;20422;-78
2021/06/16 12:14:49;;;;;;;4.05;2.90;;;33.40;99.90;;;;;;6171186;23;20209;-78
2021/06/16 12:17:16;;;;;;;3.22;2.50;;;33.30;99.90;;;;;;6171834;23;20178;-73
2021/06/16 12:19:43;;;;;;;2.88;2.30;;;33.50;99.90;;;;;;6171104;23;20185;-74
2021/06/16 12:22:11;;;;;;;5.63;3.75;;;33.40;99.90;;;;;;6171469;23;20175;-75
2021/06/16 12:24:42;;;;;;;5.15;3.88;;;33.80;99.90;;;;;;6172318;23;20464;-73
2021/06/16 12:27:12;;;;;;;4.90;2.75;;;33.50;99.90;;;;;;6171754;23;20543;-74
2021/06/16 12:29:46;;;;;;;5.55;3.42;;;33.40;99.90;;;;;;6171245;23;20186;-75
2021/06/16 12:32:14;;;;;;;7.60;4.60;;;33.40;99.90;;;;;;6172070;23;20174;-73
2021/06/16 12:35:01;;;;;;;6.95;4.20;;;33.10;99.90;;;;;;6173572;23;20233;-74
2021/06/16 12:37:28;;;;;;;6.53;3.80;;;33.20;99.90;;;;;;6173752;23;20177;-74
2021/06/16 12:39:59;;;;;;;3.35;2.83;;;33.30;99.90;;;;;;6172790;23;20175;-75
2021/06/16 12:42:41;;;;;;;6.05;3.08;;;33.50;99.90;;;;;;6174001;23;20173;-74
2021/06/16 12:45:29;;;;;;;7.13;3.30;;;33.70;99.90;;;;;;6173655;23;20175;-73
2021/06/16 12:47:57;;;;;;;4.93;2.70;;;33.50;99.90;;;;;;6172468;23;20448;-76
2021/06/16 12:50:32;;;;;;;5.82;2.40;;;33.60;99.90;;;;;;6173472;23;20591;-78
2021/06/16 12:53:11;;;;;;;6.32;3.60;;;33.80;99.90;;;;;;6173474;23;20178;-76
2021/06/16 12:55:43;;;;;;;4.85;3.60;;;33.70;99.90;;;;;;6173109;23;20174;-75
2021/06/16 12:58:10;;;;;;;6.75;3.60;;;33.50;99.90;;;;;;6173200;23;20178;-74